Time;durP1;ratioP1;P1;durP2;ratioP2;P2;SDS_P1;SDS_P2;PMS_P1;PMS_P2;Temp;Humidity;BMP_temperature;BMP_pressure;BME280_temperature;BME280_humidity;BME280_pressure;Samples;Min_cycle;Max_cycle;Signal;HPM_P1;HPM_P2
2022/09/17 00:00:18;;;;;;;12.82;3.05;;;12.20;99.90;;;;;;5073833;28;20036;-58
2022/09/17 00:02:44;;;;;;;10.73;2.80;;;12.20;99.90;;;;;;5091888;28;20044;-59
2022/09/17 00:05:11;;;;;;;13.77;2.72;;;12.20;99.90;;;;;;5073306;28;20048;-58
2022/09/17 00:07:37;;;;;;;17.30;3.53;;;12.20;99.90;;;;;;5091884;28;20044;-58
2022/09/17 00:10:03;;;;;;;13.75;3.20;;;12.30;99.90;;;;;;5091323;28;20043;-59
2022/09/17 00:12:30;;;;;;;17.13;3.35;;;12.40;99.90;;;;;;5090881;28;20043;-58
2022/09/17 00:14:56;;;;;;;13.48;2.83;;;12.40;99.90;;;;;;5091188;28;20400;-58
2022/09/17 00:17:22;;;;;;;12.75;2.88;;;12.50;99.90;;;;;;5073689;28;20036;-58
2022/09/17 00:19:49;;;;;;;13.50;3.20;;;12.50;99.90;;;;;;5072365;28;20087;-59
2022/09/17 00:22:15;;;;;;;12.48;2.88;;;12.60;99.90;;;;;;5091633;28;20056;-58
2022/09/17 00:24:40;;;;;;;11.18;3.22;;;12.60;99.90;;;;;;5095518;28;20043;-58
2022/09/17 00:27:06;;;;;;;12.63;2.78;;;12.70;99.90;;;;;;5075898;28;20036;-59
2022/09/17 00:29:32;;;;;;;10.52;3.13;;;12.80;99.90;;;;;;5077111;28;20047;-58
2022/09/17 00:31:58;;;;;;;14.77;2.75;;;12.70;99.90;;;;;;5076614;28;20043;-59
2022/09/17 00:34:23;;;;;;;9.95;2.83;;;12.70;99.90;;;;;;5076475;28;20036;-58
2022/09/17 00:36:49;;;;;;;10.52;2.45;;;12.70;99.90;;;;;;5076371;28;20507;-58
2022/09/17 00:39:15;;;;;;;8.13;3.08;;;12.70;99.90;;;;;;5095092;28;20036;-58
2022/09/17 00:41:42;;;;;;;8.95;2.42;;;12.70;99.90;;;;;;5094218;28;20039;-58
2022/09/17 00:44:47;;;;;;;13.43;2.90;;;12.70;99.90;;;;;;5076277;28;20073;-58
2022/09/17 00:47:28;;;;;;;13.48;3.47;;;12.70;99.90;;;;;;5094424;28;20161;-58
2022/09/17 00:50:01;;;;;;;16.13;3.50;;;12.60;99.90;;;;;;5094390;28;20119;-59
2022/09/17 00:52:35;;;;;;;11.23;3.13;;;12.50;99.90;;;;;;5094727;28;20420;-59
2022/09/17 00:55:22;;;;;;;10.63;3.00;;;12.20;99.90;;;;;;5093526;28;20047;-58
2022/09/17 00:57:52;;;;;;;11.15;2.50;;;12.10;99.90;;;;;;5094345;28;20033;-59
2022/09/17 01:00:18;;;;;;;8.45;3.08;;;11.90;99.90;;;;;;5094843;28;20384;-58
2022/09/17 01:02:44;;;;;;;14.88;3.50;;;11.70;99.90;;;;;;5093865;28;20040;-58
2022/09/17 01:05:11;;;;;;;12.38;3.85;;;11.60;99.90;;;;;;5094475;28;20374;-58
2022/09/17 01:07:53;;;;;;;14.18;4.15;;;11.60;99.90;;;;;;5075782;28;20032;-58
2022/09/17 01:10:46;;;;;;;12.70;2.65;;;11.60;99.90;;;;;;5076531;28;20495;-58
2022/09/17 01:13:11;;;;;;;21.50;4.97;;;11.60;99.90;;;;;;5094377;28;20401;-58
2022/09/17 01:16:05;;;;;;;11.63;4.38;;;11.60;99.90;;;;;;5093602;28;20032;-58
2022/09/17 01:19:03;;;;;;;15.85;3.83;;;11.60;99.90;;;;;;5076637;28;20077;-58
2022/09/17 01:21:41;;;;;;;15.40;4.00;;;11.70;99.90;;;;;;5059522;28;20084;-58
2022/09/17 01:24:27;;;;;;;14.88;3.15;;;11.70;99.90;;;;;;5093614;28;20080;-58
2022/09/17 01:27:15;;;;;;;18.42;4.90;;;11.80;99.90;;;;;;5058853;28;20496;-58
2022/09/17 01:30:12;;;;;;;17.25;3.40;;;11.80;99.90;;;;;;5075277;28;20035;-58
2022/09/17 01:32:45;;;;;;;12.73;3.20;;;11.80;99.90;;;;;;5075897;28;20044;-59
2022/09/17 01:35:18;;;;;;;13.45;3.38;;;11.90;99.90;;;;;;5074807;28;20047;-58
2022/09/17 01:37:56;;;;;;;17.52;3.20;;;12.00;99.90;;;;;;5075351;28;20044;-58
2022/09/17 01:40:34;;;;;;;16.45;3.10;;;12.00;99.90;;;;;;5093782;28;20484;-58
2022/09/17 01:43:09;;;;;;;12.85;2.97;;;12.00;99.90;;;;;;5092727;28;20086;-58
2022/09/17 01:45:41;;;;;;;16.13;2.72;;;12.00;99.90;;;;;;5094032;28;20040;-58
2022/09/17 01:48:13;;;;;;;10.27;2.38;;;12.00;99.90;;;;;;5093393;28;20089;-59
2022/09/17 01:50:50;;;;;;;13.23;3.08;;;11.90;99.90;;;;;;5092966;28;20122;-58
2022/09/17 01:53:21;;;;;;;7.15;1.98;;;11.90;99.90;;;;;;5093759;28;20431;-58
2022/09/17 01:55:50;;;;;;;9.95;2.63;;;11.80;99.90;;;;;;5093338;28;20393;-58
2022/09/17 01:58:26;;;;;;;13.00;2.28;;;11.80;99.90;;;;;;5074668;28;20089;-58
2022/09/17 02:00:57;;;;;;;10.65;2.70;;;11.80;99.90;;;;;;5093169;28;20097;-58
2022/09/17 02:03:31;;;;;;;11.80;2.42;;;12.00;99.90;;;;;;5093504;28;20131;-58
2022/09/17 02:06:11;;;;;;;9.90;2.47;;;12.10;99.90;;;;;;5092447;28;20079;-58
2022/09/17 02:08:42;;;;;;;8.73;1.90;;;12.00;99.90;;;;;;5075338;28;20419;-58
2022/09/17 02:11:16;;;;;;;13.05;2.63;;;12.00;99.90;;;;;;5073993;28;20047;-58
2022/09/17 02:14:04;;;;;;;8.88;2.15;;;11.90;99.90;;;;;;5075261;28;20044;-58
2022/09/17 02:16:34;;;;;;;9.63;2.10;;;11.90;99.90;;;;;;5093500;28;20051;-59
2022/09/17 02:19:15;;;;;;;9.32;2.88;;;11.90;99.90;;;;;;5091696;28;20125;-58
2022/09/17 02:22:02;;;;;;;9.70;2.33;;;11.80;99.90;;;;;;5064540;28;20052;-58
2022/09/17 02:24:47;;;;;;;10.23;2.53;;;11.80;99.90;;;;;;5068620;28;20099;-58
2022/09/17 02:27:18;;;;;;;9.98;2.97;;;11.80;99.90;;;;;;5052271;28;20072;-58
2022/09/17 02:29:44;;;;;;;16.95;2.65;;;11.80;99.90;;;;;;5052859;28;20044;-58
2022/09/17 02:32:11;;;;;;;13.48;2.88;;;11.70;99.90;;;;;;5051948;28;20045;-58
2022/09/17 02:34:37;;;;;;;8.40;2.03;;;11.80;99.90;;;;;;5052522;28;20040;-58
2022/09/17 02:37:03;;;;;;;10.30;2.30;;;11.80;99.90;;;;;;5067444;28;20048;-58
2022/09/17 02:39:29;;;;;;;9.45;2.20;;;11.80;99.90;;;;;;5051983;28;20245;-58
2022/09/17 02:42:14;;;;;;;12.50;2.75;;;11.80;99.90;;;;;;5052363;28;20477;-58
2022/09/17 02:45:05;;;;;;;15.05;3.15;;;11.90;99.90;;;;;;5051576;28;20064;-58
2022/09/17 02:47:49;;;;;;;9.88;3.03;;;12.00;99.90;;;;;;5034012;28;20049;-58
2022/09/17 02:50:20;;;;;;;11.48;2.63;;;12.00;99.90;;;;;;5052647;28;20452;-58
2022/09/17 02:53:19;;;;;;;12.52;2.72;;;12.00;99.90;;;;;;5051946;28;20073;-58
2022/09/17 02:55:51;;;;;;;8.48;2.55;;;12.00;99.90;;;;;;5067706;28;20064;-58
2022/09/17 02:58:20;;;;;;;14.45;3.20;;;12.00;99.90;;;;;;5051051;28;20474;-58
2022/09/17 03:00:46;;;;;;;15.52;4.10;;;11.90;99.90;;;;;;5033067;28;20044;-58
2022/09/17 03:03:42;;;;;;;10.35;2.85;;;12.00;99.90;;;;;;5052530;28;20095;-58
2022/09/17 03:06:07;;;;;;;12.27;3.08;;;12.00;99.90;;;;;;5048468;28;20386;-59
2022/09/17 03:08:40;;;;;;;7.75;1.98;;;12.00;99.90;;;;;;5050231;28;20047;-58
2022/09/17 03:11:07;;;;;;;14.18;2.45;;;12.00;99.90;;;;;;5067354;28;20147;-58
2022/09/17 03:13:34;;;;;;;10.35;2.72;;;12.10;99.90;;;;;;5052084;28;20482;-58
2022/09/17 03:16:01;;;;;;;13.38;2.50;;;12.10;99.90;;;;;;5050855;28;20045;-58
2022/09/17 03:18:27;;;;;;;8.20;1.80;;;12.10;99.90;;;;;;5067590;28;20633;-58
2022/09/17 03:20:53;;;;;;;9.02;1.80;;;11.90;99.90;;;;;;5052312;28;20435;-58
2022/09/17 03:23:18;;;;;;;9.15;1.65;;;11.60;99.90;;;;;;5091686;28;20036;-58
2022/09/17 03:25:45;;;;;;;10.90;1.75;;;11.40;99.90;;;;;;5092128;28;20123;-58
2022/09/17 03:28:11;;;;;;;8.88;2.05;;;11.30;99.90;;;;;;5074405;28;20080;-58
2022/09/17 03:30:37;;;;;;;8.15;1.70;;;11.20;99.90;;;;;;5073430;28;20072;-58
2022/09/17 03:33:02;;;;;;;7.20;2.03;;;11.10;99.90;;;;;;5091678;28;20479;-58
2022/09/17 03:35:28;;;;;;;8.25;2.40;;;10.90;99.90;;;;;;5091414;28;20396;-58
2022/09/17 03:37:54;;;;;;;9.88;2.55;;;10.90;99.90;;;;;;5091835;28;20028;-58
2022/09/17 03:40:20;;;;;;;11.38;2.58;;;10.90;99.90;;;;;;5057536;28;20078;-58
2022/09/17 03:42:45;;;;;;;7.45;2.58;;;10.90;99.90;;;;;;5090886;28;20093;-58
2022/09/17 03:45:11;;;;;;;8.05;2.28;;;11.00;99.90;;;;;;5092087;28;20046;-58
2022/09/17 03:47:37;;;;;;;8.75;1.92;;;11.10;99.90;;;;;;5091939;28;20078;-58
2022/09/17 03:50:04;;;;;;;11.15;2.17;;;11.20;99.90;;;;;;5072914;28;20093;-58
2022/09/17 03:52:30;;;;;;;11.00;2.45;;;11.40;99.90;;;;;;5073893;28;20512;-58
2022/09/17 03:54:55;;;;;;;9.07;2.00;;;11.50;99.90;;;;;;5091559;28;20078;-58
2022/09/17 03:57:21;;;;;;;11.00;2.08;;;11.50;99.90;;;;;;5073418;28;20032;-58
2022/09/17 03:59:47;;;;;;;10.00;3.22;;;11.50;99.90;;;;;;5095344;28;20427;-58
2022/09/17 04:02:13;;;;;;;9.63;1.65;;;11.40;99.90;;;;;;5095874;28;20040;-58
2022/09/17 04:04:39;;;;;;;10.43;2.30;;;11.30;99.90;;;;;;5077044;28;20043;-58
2022/09/17 04:07:05;;;;;;;11.45;2.10;;;11.30;99.90;;;;;;5095502;28;20537;-58
2022/09/17 04:09:31;;;;;;;11.50;2.42;;;11.30;99.90;;;;;;5077801;28;20098;-58
2022/09/17 04:11:57;;;;;;;9.82;2.33;;;11.20;99.90;;;;;;5094208;28;20067;-58
2022/09/17 04:14:23;;;;;;;10.48;2.60;;;11.20;99.90;;;;;;5095607;28;20401;-58
2022/09/17 04:16:49;;;;;;;7.60;1.90;;;11.30;99.90;;;;;;5094963;28;20036;-58
2022/09/17 04:19:14;;;;;;;11.43;2.78;;;11.20;99.90;;;;;;5076781;28;20036;-58
2022/09/17 04:21:40;;;;;;;15.00;2.72;;;11.30;99.90;;;;;;5095280;28;20055;-58
2022/09/17 04:24:06;;;;;;;15.48;3.20;;;11.30;99.90;;;;;;5094923;28;20088;-58
2022/09/17 04:26:31;;;;;;;13.60;3.30;;;11.30;99.90;;;;;;5094692;28;20040;-58
2022/09/17 04:28:58;;;;;;;14.43;3.90;;;11.30;99.90;;;;;;5094692;28;20048;-58
2022/09/17 04:31:25;;;;;;;10.20;2.85;;;11.20;99.90;;;;;;5095326;28;20056;-58
2022/09/17 04:33:51;;;;;;;13.40;2.75;;;11.20;99.90;;;;;;5093864;28;20089;-58
2022/09/17 04:36:17;;;;;;;12.50;3.50;;;11.10;99.90;;;;;;5076943;28;20044;-58
2022/09/17 04:38:43;;;;;;;8.10;2.08;;;11.20;99.90;;;;;;5094510;28;20036;-58
2022/09/17 04:41:08;;;;;;;13.55;2.53;;;11.20;99.90;;;;;;5094515;28;20028;-58
2022/09/17 04:43:34;;;;;;;14.38;3.83;;;11.30;99.90;;;;;;5060266;28;20050;-58
2022/09/17 04:46:00;;;;;;;14.98;2.90;;;11.30;99.90;;;;;;5093640;28;20119;-58
2022/09/17 04:48:25;;;;;;;14.45;3.88;;;11.40;99.90;;;;;;5094934;28;20124;-58
2022/09/17 04:50:51;;;;;;;17.40;3.95;;;11.40;99.90;;;;;;5076235;28;20051;-58
2022/09/17 04:53:17;;;;;;;13.18;2.80;;;11.40;99.90;;;;;;5075912;28;20044;-58
2022/09/17 04:55:43;;;;;;;10.55;3.33;;;11.50;99.90;;;;;;5094904;28;20036;-58
2022/09/17 04:58:10;;;;;;;12.18;3.15;;;11.50;99.90;;;;;;5094248;28;20066;-58
2022/09/17 05:00:36;;;;;;;13.73;3.60;;;11.60;99.90;;;;;;5093791;28;20043;-59
2022/09/17 05:03:02;;;;;;;11.18;2.83;;;11.60;99.90;;;;;;5094144;28;20043;-58
2022/09/17 05:05:28;;;;;;;8.95;2.33;;;11.70;99.90;;;;;;5094772;28;20400;-58
2022/09/17 05:07:53;;;;;;;7.68;1.30;;;11.70;99.90;;;;;;5093374;28;20048;-58
2022/09/17 05:10:21;;;;;;;5.95;1.17;;;11.70;99.90;;;;;;5059853;28;20434;-58
2022/09/17 05:12:51;;;;;;;6.22;1.17;;;11.70;99.90;;;;;;5093776;28;20040;-58
2022/09/17 05:15:18;;;;;;;5.03;1.23;;;11.60;99.90;;;;;;5075928;28;20456;-58
2022/09/17 05:17:44;;;;;;;4.97;1.45;;;11.60;99.90;;;;;;5094260;28;20469;-58
2022/09/17 05:20:11;;;;;;;8.45;1.65;;;11.60;99.90;;;;;;5076138;28;20047;-58
2022/09/17 05:22:50;;;;;;;4.60;1.65;;;11.50;99.90;;;;;;5093437;28;20062;-58
2022/09/17 05:25:19;;;;;;;7.30;1.90;;;11.40;99.90;;;;;;5094208;28;20047;-58
2022/09/17 05:27:45;;;;;;;6.90;1.63;;;11.30;99.90;;;;;;5093828;28;20123;-58
2022/09/17 05:30:11;;;;;;;11.52;2.65;;;11.10;99.90;;;;;;5075219;28;20124;-58
2022/09/17 05:32:38;;;;;;;7.05;1.70;;;11.00;99.90;;;;;;5075978;28;20040;-58
2022/09/17 05:35:04;;;;;;;5.43;1.40;;;10.90;99.90;;;;;;5074607;28;20553;-58
2022/09/17 05:37:30;;;;;;;7.90;1.70;;;10.80;99.90;;;;;;5076225;28;20222;-58
2022/09/17 05:39:55;;;;;;;6.38;1.25;;;10.80;99.90;;;;;;5093507;28;20447;-58
2022/09/17 05:42:21;;;;;;;6.47;1.50;;;10.80;99.90;;;;;;5075359;28;20040;-58
2022/09/17 05:44:47;;;;;;;7.07;2.00;;;10.80;99.90;;;;;;5093573;28;20042;-58
2022/09/17 05:47:13;;;;;;;6.40;1.83;;;10.80;99.90;;;;;;5075993;28;20044;-58
2022/09/17 05:49:38;;;;;;;8.95;1.58;;;10.70;99.90;;;;;;5074940;28;20101;-58
2022/09/17 05:52:04;;;;;;;9.85;1.63;;;10.70;99.90;;;;;;5093315;28;20101;-58
2022/09/17 05:54:30;;;;;;;7.32;1.75;;;10.70;99.90;;;;;;5093505;28;20087;-58
2022/09/17 05:56:55;;;;;;;11.48;3.20;;;10.70;99.90;;;;;;5074216;28;20036;-58
2022/09/17 05:59:21;;;;;;;8.43;2.00;;;10.80;99.90;;;;;;5075431;28;20039;-58
2022/09/17 06:01:47;;;;;;;10.82;2.17;;;10.90;99.90;;;;;;5093076;28;20413;-58
2022/09/17 06:04:13;;;;;;;6.72;2.15;;;11.00;99.90;;;;;;5058220;28;20085;-58
2022/09/17 06:06:40;;;;;;;9.57;2.40;;;11.10;99.90;;;;;;5093435;28;20036;-58
2022/09/17 06:09:09;;;;;;;10.70;2.13;;;11.00;99.90;;;;;;5092767;28;20056;-58
2022/09/17 06:11:36;;;;;;;10.00;2.35;;;11.00;99.90;;;;;;5074541;28;20048;-58
2022/09/17 06:14:02;;;;;;;9.75;2.63;;;10.90;99.90;;;;;;5074488;28;20071;-58
2022/09/17 06:16:28;;;;;;;8.38;1.88;;;10.80;99.90;;;;;;5093466;28;20072;-58
2022/09/17 06:18:54;;;;;;;9.23;3.03;;;10.70;99.90;;;;;;5073756;28;20040;-58
2022/09/17 06:21:21;;;;;;;10.27;3.15;;;10.70;99.90;;;;;;5092450;28;20063;-58
2022/09/17 06:23:48;;;;;;;15.32;3.95;;;10.80;99.90;;;;;;5074456;28;20095;-58
2022/09/17 06:26:14;;;;;;;11.77;2.90;;;10.80;99.90;;;;;;5092544;28;20036;-58
2022/09/17 06:28:40;;;;;;;26.83;13.38;;;10.80;99.90;;;;;;5074821;28;20039;-58
2022/09/17 06:31:07;;;;;;;20.85;16.75;;;10.80;99.90;;;;;;5092593;28;20104;-57
2022/09/17 06:33:35;;;;;;;15.35;8.68;;;10.90;99.90;;;;;;5075017;28;20430;-58
2022/09/17 06:36:11;;;;;;;13.13;5.97;;;10.90;99.90;;;;;;5092369;28;20467;-58
2022/09/17 06:38:37;;;;;;;7.32;2.90;;;10.90;99.90;;;;;;5074114;28;20048;-58
2022/09/17 06:41:03;;;;;;;11.00;3.28;;;11.10;99.90;;;;;;5092465;28;20043;-58
2022/09/17 06:43:29;;;;;;;6.82;1.70;;;11.20;99.90;;;;;;5092880;28;20108;-58
2022/09/17 06:46:04;;;;;;;6.65;1.60;;;11.30;99.90;;;;;;5091524;28;20538;-58
2022/09/17 06:48:32;;;;;;;6.40;1.27;;;11.40;99.90;;;;;;5074853;28;20072;-58
2022/09/17 06:51:04;;;;;;;8.05;1.40;;;11.60;99.90;;;;;;5075879;28;20047;-58
2022/09/17 06:53:31;;;;;;;4.85;1.23;;;11.80;99.90;;;;;;5112012;28;20040;-58
2022/09/17 06:55:59;;;;;;;8.40;1.52;;;11.90;99.90;;;;;;5084049;28;20452;-59
2022/09/17 06:58:25;;;;;;;6.18;1.27;;;12.00;99.90;;;;;;5092641;28;20101;-58
2022/09/17 07:00:51;;;;;;;6.72;1.02;;;12.00;99.90;;;;;;5058730;28;20087;-58
2022/09/17 07:03:18;;;;;;;4.72;1.08;;;12.00;99.90;;;;;;5055684;28;20071;-58
2022/09/17 07:05:44;;;;;;;5.72;1.42;;;12.10;99.90;;;;;;5072082;28;20044;-58
2022/09/17 07:08:10;;;;;;;6.18;1.70;;;12.20;99.90;;;;;;5070814;28;20055;-58
2022/09/17 07:10:35;;;;;;;6.70;1.70;;;12.30;99.90;;;;;;5089619;28;20044;-58
2022/09/17 07:13:02;;;;;;;6.85;1.50;;;12.50;99.90;;;;;;5105095;28;20047;-58
2022/09/17 07:15:29;;;;;;;5.20;1.25;;;12.70;99.90;;;;;;5067664;28;20047;-59
2022/09/17 07:17:55;;;;;;;7.22;1.77;;;12.80;99.90;;;;;;5050947;28;20032;-58
2022/09/17 07:20:21;;;;;;;6.82;2.17;;;12.90;99.90;;;;;;5047184;28;20036;-59
2022/09/17 07:22:56;;;;;;;9.48;1.63;;;12.80;99.90;;;;;;5078765;28;20377;-58
2022/09/17 07:25:23;;;;;;;9.82;2.30;;;12.50;99.90;;;;;;5069321;28;20071;-58
2022/09/17 07:27:49;;;;;;;14.20;2.17;;;12.20;99.90;;;;;;5062571;28;20145;-58
2022/09/17 07:30:15;;;;;;;7.88;1.98;;;11.90;99.90;;;;;;5088069;28;20045;-58
2022/09/17 07:32:41;;;;;;;9.20;2.20;;;11.80;99.90;;;;;;5073816;28;20036;-58
2022/09/17 07:35:07;;;;;;;5.88;1.13;;;11.70;99.90;;;;;;5092292;28;20040;-58
2022/09/17 07:37:32;;;;;;;9.13;2.03;;;11.60;99.90;;;;;;5094129;28;20043;-58
2022/09/17 07:39:58;;;;;;;5.78;1.35;;;11.50;99.90;;;;;;5077617;28;20769;-58
2022/09/17 07:42:26;;;;;;;9.57;1.50;;;11.50;99.90;;;;;;5072347;28;20086;-58
2022/09/17 07:44:52;;;;;;;9.50;1.77;;;11.40;99.90;;;;;;5054710;28;20040;-58
2022/09/17 07:47:18;;;;;;;7.97;1.45;;;11.30;99.90;;;;;;5091455;28;20460;-58
2022/09/17 07:49:44;;;;;;;7.60;1.73;;;11.20;99.90;;;;;;5071853;28;20055;-58
2022/09/17 07:52:10;;;;;;;7.00;1.95;;;11.20;99.90;;;;;;5070512;28;20044;-59
2022/09/17 07:54:36;;;;;;;10.10;1.83;;;11.20;99.90;;;;;;5078411;28;20396;-59
2022/09/17 07:57:02;;;;;;;10.45;1.75;;;11.20;99.90;;;;;;5094138;28;20032;-58
2022/09/17 07:59:28;;;;;;;7.57;2.35;;;11.20;99.90;;;;;;5060400;28;20392;-58
2022/09/17 08:01:54;;;;;;;11.45;2.60;;;11.20;99.90;;;;;;5090832;28;20031;-59
2022/09/17 08:04:21;;;;;;;9.60;2.22;;;11.20;99.90;;;;;;5080044;28;20048;-59
2022/09/17 08:06:48;;;;;;;9.18;2.05;;;11.40;99.90;;;;;;5079588;28;20121;-58
2022/09/17 08:09:14;;;;;;;10.90;1.98;;;11.60;99.90;;;;;;5057752;28;20079;-59
2022/09/17 08:11:42;;;;;;;12.18;3.28;;;11.70;99.90;;;;;;5074754;28;20051;-59
2022/09/17 08:14:13;;;;;;;5.72;1.55;;;11.80;99.90;;;;;;5075868;28;20040;-59
2022/09/17 08:16:39;;;;;;;4.32;1.30;;;11.90;99.90;;;;;;5094910;28;20040;-59
2022/09/17 08:19:05;;;;;;;3.42;1.10;;;11.80;99.90;;;;;;5094907;28;20066;-59
2022/09/17 08:21:31;;;;;;;10.70;1.58;;;11.80;99.90;;;;;;5057115;28;20053;-59
2022/09/17 08:23:57;;;;;;;8.48;1.95;;;11.80;99.90;;;;;;5055715;28;20044;-59
2022/09/17 08:26:24;;;;;;;8.80;1.27;;;11.90;99.90;;;;;;5075409;28;20469;-60
2022/09/17 08:28:54;;;;;;;7.25;1.50;;;12.00;99.90;;;;;;5056429;28;20050;-59
2022/09/17 08:31:22;;;;;;;6.88;1.38;;;12.10;99.90;;;;;;5069788;28;20408;-59
2022/09/17 08:33:48;;;;;;;5.93;1.60;;;12.10;99.90;;;;;;5078781;28;20449;-59
2022/09/17 08:36:15;;;;;;;12.50;2.20;;;12.30;99.90;;;;;;5062019;28;20056;-59
2022/09/17 08:38:41;;;;;;;7.65;1.83;;;12.40;99.90;;;;;;5085879;28;20131;-59
2022/09/17 08:41:13;;;;;;;9.93;2.10;;;12.60;99.90;;;;;;5063473;28;20487;-59
2022/09/17 08:44:31;;;;;;;8.52;1.70;;;12.90;99.90;;;;;;5067493;28;20080;-60
2022/09/17 08:47:05;;;;;;;7.50;1.77;;;13.20;99.90;;;;;;5051644;28;20053;-60
2022/09/17 08:49:30;;;;;;;8.32;1.88;;;13.40;99.90;;;;;;5053428;28;20045;-60
2022/09/17 08:52:11;;;;;;;7.47;1.50;;;13.50;99.90;;;;;;5052136;28;20041;-60
2022/09/17 08:55:15;;;;;;;6.60;1.42;;;13.70;99.90;;;;;;5054670;28;20048;-59
2022/09/17 08:57:55;;;;;;;4.22;1.10;;;13.90;99.90;;;;;;5054532;28;20510;-60
2022/09/17 09:00:23;;;;;;;5.68;1.25;;;13.80;99.90;;;;;;5053697;28;20487;-60
2022/09/17 09:03:24;;;;;;;4.18;1.08;;;13.70;99.90;;;;;;5052739;28;20390;-60
2022/09/17 09:05:55;;;;;;;8.43;1.13;;;13.60;99.90;;;;;;5054091;28;20542;-60
2022/09/17 09:08:42;;;;;;;7.03;1.63;;;13.40;99.90;;;;;;5054119;28;20048;-59
2022/09/17 09:11:20;;;;;;;5.63;1.52;;;13.20;99.90;;;;;;5052403;28;20112;-59
2022/09/17 09:13:50;;;;;;;5.55;1.42;;;13.00;99.90;;;;;;5051983;28;20124;-60
2022/09/17 09:16:23;;;;;;;8.82;2.10;;;13.00;99.90;;;;;;5054220;28;20036;-60
2022/09/17 09:18:53;;;;;;;9.50;1.35;;;13.00;99.90;;;;;;5053826;28;20032;-59
2022/09/17 09:21:30;;;;;;;7.72;1.35;;;12.80;99.90;;;;;;5076778;28;20077;-59
2022/09/17 09:23:57;;;;;;;4.80;1.05;;;12.40;99.90;;;;;;5058722;28;20127;-59
2022/09/17 09:26:44;;;;;;;8.00;2.00;;;12.10;99.90;;;;;;5058276;28;20122;-59
2022/09/17 09:29:19;;;;;;;8.57;1.77;;;11.90;99.90;;;;;;5063756;28;20049;-58
2022/09/17 09:32:17;;;;;;;6.38;1.48;;;11.80;99.90;;;;;;5072106;28;20081;-58
2022/09/17 09:34:45;;;;;;;8.85;1.75;;;11.70;99.90;;;;;;5081932;28;20082;-59
2022/09/17 09:37:25;;;;;;;11.52;2.47;;;11.80;99.90;;;;;;5073746;28;20436;-58
2022/09/17 09:39:54;;;;;;;8.60;1.80;;;12.00;99.90;;;;;;5087902;28;20088;-59
2022/09/17 09:42:32;;;;;;;9.38;2.47;;;12.30;99.90;;;;;;5093408;28;20063;-59
2022/09/17 09:45:22;;;;;;;10.90;2.20;;;12.60;99.90;;;;;;5064080;28;20049;-60
2022/09/17 09:48:03;;;;;;;8.98;1.70;;;12.50;99.90;;;;;;5073054;28;20045;-60
2022/09/17 09:50:48;;;;;;;9.05;2.05;;;12.40;99.90;;;;;;5073237;28;20093;-59
2022/09/17 09:53:17;;;;;;;;;;;12.30;99.90;;;;;;5073920;28;20033;-59
2022/09/17 09:55:51;;;;;;;9.38;2.00;;;12.40;99.90;;;;;;5058436;28;20338;-59
2022/09/17 09:58:38;;;;;;;6.13;1.50;;;12.60;99.90;;;;;;5090739;28;20467;-59
2022/09/17 10:01:19;;;;;;;11.10;2.25;;;12.90;99.90;;;;;;5092929;28;20040;-58
2022/09/17 10:03:46;;;;;;;6.82;1.25;;;13.10;99.90;;;;;;5061174;28;20535;-59
2022/09/17 10:06:13;;;;;;;12.75;2.00;;;13.10;99.90;;;;;;5061573;28;20050;-59
2022/09/17 10:08:43;;;;;;;9.52;1.60;;;13.30;99.90;;;;;;5088877;28;20374;-59
2022/09/17 10:11:12;;;;;;;5.55;1.63;;;13.50;99.90;;;;;;5080514;28;20122;-59
2022/09/17 10:13:39;;;;;;;10.95;2.03;;;13.70;99.90;;;;;;5091880;28;20036;-59
2022/09/17 10:16:27;;;;;;;10.25;2.78;;;13.90;99.90;;;;;;5092352;28;20105;-59
2022/09/17 10:19:02;;;;;;;10.73;2.10;;;13.90;99.90;;;;;;5092413;28;20032;-59
2022/09/17 10:21:32;;;;;;;9.45;1.92;;;14.00;99.90;;;;;;5082620;28;20064;-59
2022/09/17 10:23:59;;;;;;;9.23;1.90;;;14.10;99.90;;;;;;5081801;28;20037;-59
2022/09/17 10:26:31;;;;;;;12.07;2.65;;;14.10;99.90;;;;;;5093323;28;20105;-59
2022/09/17 10:29:10;;;;;;;10.70;2.63;;;14.30;99.90;;;;;;5088692;28;20032;-60
2022/09/17 10:31:56;;;;;;;12.55;2.65;;;14.30;99.90;;;;;;5070452;28;20041;-58
2022/09/17 10:34:26;;;;;;;;;;;13.50;99.90;;;;;;5072361;28;20047;-58
2022/09/17 10:36:52;;;;;;;10.70;2.83;;;12.70;99.90;;;;;;5084884;28;20403;-58
2022/09/17 10:39:31;;;;;;;10.35;1.77;;;12.30;99.90;;;;;;5054089;28;20033;-58
2022/09/17 10:41:58;;;;;;;8.48;1.85;;;12.10;99.90;;;;;;5072434;28;20032;-58
2022/09/17 10:44:27;;;;;;;9.60;1.70;;;12.00;99.90;;;;;;5071742;28;20476;-59
2022/09/17 10:46:54;;;;;;;7.30;1.65;;;11.80;99.90;;;;;;5077565;28;20492;-58
2022/09/17 10:49:32;;;;;;;6.88;2.03;;;11.60;99.90;;;;;;5070168;28;20060;-59
2022/09/17 10:52:05;;;;;;;11.05;2.22;;;11.60;99.90;;;;;;5073596;28;20032;-59
2022/09/17 10:55:06;;;;;;;10.70;2.17;;;11.60;99.90;;;;;;5061213;28;20051;-59
2022/09/17 10:57:41;;;;;;;10.57;2.00;;;11.60;99.90;;;;;;5070724;28;20078;-58
2022/09/17 11:00:22;;;;;;;9.85;2.80;;;11.60;99.90;;;;;;5078654;28;20043;-59
2022/09/17 11:03:11;;;;;;;7.25;1.55;;;11.70;99.90;;;;;;5067800;28;20043;-58
2022/09/17 11:06:14;;;;;;;6.97;1.90;;;11.80;99.90;;;;;;5089278;28;20032;-59
2022/09/17 11:08:43;;;;;;;10.18;1.80;;;11.80;99.90;;;;;;5089907;28;20389;-59
2022/09/17 11:11:15;;;;;;;8.00;1.63;;;11.90;99.90;;;;;;5089601;28;20399;-59
2022/09/17 11:14:09;;;;;;;11.63;2.22;;;12.10;99.90;;;;;;5088809;28;20074;-59
2022/09/17 11:16:55;;;;;;;8.10;2.25;;;12.40;99.90;;;;;;5069376;28;20051;-59
2022/09/17 11:19:48;;;;;;;9.68;2.65;;;12.60;99.90;;;;;;5080892;28;20118;-59
2022/09/17 11:22:56;;;;;;;8.05;2.33;;;12.80;99.90;;;;;;5089737;28;20060;-59
2022/09/17 11:25:36;;;;;;;14.13;2.63;;;12.90;99.90;;;;;;4985787;28;20472;-59
2022/09/17 11:28:18;;;;;;;8.88;2.20;;;12.90;99.90;;;;;;5041711;28;20053;-59
2022/09/17 11:30:49;;;;;;;13.30;2.80;;;13.00;99.90;;;;;;5069786;28;20048;-59
2022/09/17 11:33:40;;;;;;;11.05;3.00;;;13.20;99.90;;;;;;5067982;28;20049;-59
2022/09/17 11:36:27;;;;;;;11.50;2.50;;;13.50;99.90;;;;;;5069082;28;20036;-59
2022/09/17 11:38:57;;;;;;;12.45;2.38;;;13.60;99.90;;;;;;5072214;28;20401;-59
2022/09/17 11:41:28;;;;;;;6.32;1.98;;;13.80;99.90;;;;;;5077502;28;20115;-59
2022/09/17 11:44:13;;;;;;;8.88;2.42;;;13.80;99.90;;;;;;5073049;28;20070;-59
2022/09/17 11:46:50;;;;;;;7.80;2.03;;;13.90;99.90;;;;;;5091339;28;20396;-59
2022/09/17 11:49:28;;;;;;;7.75;2.20;;;14.00;99.90;;;;;;5075912;28;20040;-59
2022/09/17 11:52:06;;;;;;;7.60;2.13;;;14.20;99.90;;;;;;5072926;28;20473;-59
2022/09/17 11:54:39;;;;;;;13.55;2.85;;;14.20;99.90;;;;;;5054164;28;20041;-59
2022/09/17 11:57:14;;;;;;;11.48;2.40;;;14.40;99.90;;;;;;5086922;28;20098;-59
2022/09/17 11:59:53;;;;;;;12.07;2.85;;;14.60;99.90;;;;;;5054364;28;20041;-59
2022/09/17 12:02:45;;;;;;;12.18;2.38;;;14.50;99.90;;;;;;5080686;28;20036;-59
2022/09/17 12:05:33;;;;;;;8.63;2.72;;;14.30;99.90;;;;;;5041301;28;20393;-59
2022/09/17 12:08:15;;;;;;;11.63;2.75;;;14.20;99.90;;;;;;5036917;28;20041;-59
2022/09/17 12:11:17;;;;;;;18.88;8.50;;;14.20;99.90;;;;;;5053575;28;20381;-59
2022/09/17 12:13:48;;;;;;;33.25;19.25;;;14.30;99.90;;;;;;5071763;28;20037;-59
2022/09/17 12:16:31;;;;;;;27.98;16.17;;;14.30;99.90;;;;;;5070908;28;20493;-59
2022/09/17 12:19:09;;;;;;;116.95;83.35;;;14.40;99.90;;;;;;5073406;28;20039;-59
2022/09/17 12:21:53;;;;;;;45.60;27.27;;;14.30;99.90;;;;;;5076344;28;20110;-59
2022/09/17 12:24:22;;;;;;;21.10;14.15;;;14.20;99.90;;;;;;5075099;28;20037;-59
2022/09/17 12:27:36;;;;;;;18.25;11.07;;;14.10;99.90;;;;;;5056753;28;20493;-59
2022/09/17 12:30:24;;;;;;;13.85;8.75;;;14.00;99.90;;;;;;5057996;28;20044;-59
2022/09/17 12:33:16;;;;;;;15.52;4.72;;;14.00;99.90;;;;;;5056792;28;20044;-60
2022/09/17 12:35:54;;;;;;;9.32;3.05;;;14.10;99.90;;;;;;5040779;28;20043;-60
2022/09/17 12:38:52;;;;;;;10.95;4.53;;;14.30;99.90;;;;;;5074350;28;20032;-60
2022/09/17 12:41:40;;;;;;;13.95;4.53;;;14.40;99.90;;;;;;5067422;28;20043;-59
2022/09/17 12:44:23;;;;;;;15.02;3.42;;;14.60;99.90;;;;;;5096705;28;20139;-60
2022/09/17 12:47:42;;;;;;;9.27;2.85;;;14.70;99.10;;;;;;5072635;28;20052;-60
2022/09/17 12:50:33;;;;;;;10.65;3.08;;;14.80;97.40;;;;;;5074162;28;20040;-59
2022/09/17 12:53:25;;;;;;;10.27;2.80;;;14.90;99.50;;;;;;5090984;28;20487;-59
2022/09/17 12:56:16;;;;;;;9.77;2.30;;;14.90;99.50;;;;;;5091355;28;20040;-59
2022/09/17 12:59:14;;;;;;;12.55;2.40;;;14.90;98.10;;;;;;5090800;28;20488;-59
2022/09/17 13:01:49;;;;;;;9.50;1.73;;;14.90;97.40;;;;;;5062086;28;20056;-59
2022/09/17 13:04:27;;;;;;;7.05;1.98;;;14.90;94.50;;;;;;5076818;28;20040;-59
2022/09/17 13:07:11;;;;;;;11.45;2.70;;;15.00;93.20;;;;;;5093710;28;20052;-59
2022/09/17 13:10:18;;;;;;;9.95;2.33;;;15.00;93.90;;;;;;5076217;28;20044;-59
2022/09/17 13:12:46;;;;;;;13.43;3.05;;;15.00;94.50;;;;;;5079829;28;20048;-59